SBOSBO SKG / LGTS
Speedbird OnlineSpeedbird Online SKG / LGTS

Thessaloniki Macedonia International Airport
20:00 25.3°C

Location Thessaloniki, Greece
Latitude: 40.51969909667969
Longitude: 22.97089958190918
Local Time 20:00 on 30 May 2024
UTC +3 hours (Europe/Athens)
Currency £1 equals EUR 1.18
METAR LGTS 301650Z 18014KT 9999 FEW030 25/13 Q1009 NOSIG
TAF TAF LGTS 301100Z 3012/3112 17013KT 9999 FEW030 PROB40 TEMPO 3012/3016 4000 TSRA FEW018CB BKN025 BECMG 3022/3024 VRB03KT
Weather As Of 30 May 2024 20:00
Description Few clouds
Wind 26 km/h from South (160°)
Cloud Cover 20%
Precipitation Rain: none, Snow: none
Sunrise 06:00
Sunset 20:50
NOTAM 22 active NOTAM
Rotations During the last 90 days there were
50 flights from LGW
12 flights from LHR
50 flights to LGW
13 flights to LHR
Lounges Manolis Andronikos Skyserv Lounge , Main Terminal
Web Wikipedia
Codes IATA: SKG
ICAO: LGTS
Altitude 7 Meter / 22 Feet
Distance 2,131 KM / 1,324 Miles
from London.
Runways
RunwayLength (m)Surface
103440Asphalt
162410Asphalt
283440Asphalt
342410Asphalt
Radio
TypeDescriptionFrequency
A/GRDO563.7
APPAPP120.8
ATISATIS127.55
CLDCLNC DEL118.05
GNDGND121.7
TWRTWR118.1
Live ATC



Support Speedbird Online

© 2017-2024 Speedbird Online